Greyabbey, United Kingdom
Current Conditions -  °F | °C
As of 12:20 PM on Thursday 18 Dec 2014 (Local Time) from EGAC Reporting Station
Light Rain Light Rain  
Wind Chill: 55°   Ceiling: 2300
Heat Index: 55°   Visibility: 2.1mi
Dew Point: 52°   Wind: 20mph
Humidity: 88%   Direction: 250°WSW
Pressure: 29.41"   Gusts: NA
Location:  54.53°N, 5.57°W
Report Text: EGAC 181220Z 25017KT 3500 -RADZ FEW011 SCT018 BKN023 13/11 Q0996
Loading
Personal Weather Stations






























Interactive Weather Map New forecast layout! Learn more

10-Day Weather Forecast

Advertisements
Track Severe Weather on mobile